Time;durP1;ratioP1;P1;durP2;ratioP2;P2;SDS_P1;SDS_P2;PMS_P1;PMS_P2;Temp;Humidity;BMP_temperature;BMP_pressure;BME280_temperature;BME280_humidity;BME280_pressure;Samples;Min_cycle;Max_cycle;Signal;HPM_P1;HPM_P2
2022/05/22 00:00:28;;;;;;;3.50;3.20;;;16.00;74.10;;;;;;5048599;28;20241;-63
2022/05/22 00:02:54;;;;;;;4.00;3.30;;;16.00;74.10;;;;;;5047988;28;20191;-63
2022/05/22 00:05:22;;;;;;;5.03;2.97;;;15.90;74.40;;;;;;5043326;28;20202;-63
2022/05/22 00:07:48;;;;;;;3.60;3.27;;;15.80;74.60;;;;;;5009406;28;20231;-63
2022/05/22 00:10:14;;;;;;;4.13;2.97;;;15.80;74.80;;;;;;5027430;28;20219;-63
2022/05/22 00:12:41;;;;;;;3.43;3.13;;;15.70;75.00;;;;;;5044795;28;20278;-63
2022/05/22 00:15:08;;;;;;;3.17;2.90;;;15.70;74.90;;;;;;5046363;28;20230;-63
2022/05/22 00:17:33;;;;;;;3.17;2.87;;;15.60;75.00;;;;;;5008609;28;20207;-63
2022/05/22 00:19:59;;;;;;;3.40;3.10;;;15.50;75.30;;;;;;5015624;28;20187;-64
2022/05/22 00:22:25;;;;;;;3.47;3.13;;;15.60;75.40;;;;;;5027039;28;20209;-64
2022/05/22 00:24:52;;;;;;;4.73;3.47;;;15.50;75.40;;;;;;5019168;28;20226;-64
2022/05/22 00:27:18;;;;;;;3.80;3.50;;;15.50;75.30;;;;;;5018689;28;20199;-65
2022/05/22 00:29:44;;;;;;;4.37;3.30;;;15.40;75.40;;;;;;5007786;28;20203;-65
2022/05/22 00:32:09;;;;;;;3.60;3.30;;;15.30;75.70;;;;;;5018918;28;20195;-64
2022/05/22 00:34:37;;;;;;;3.43;3.13;;;15.30;75.60;;;;;;5018678;28;20315;-64
2022/05/22 00:37:04;;;;;;;3.90;3.50;;;15.30;75.80;;;;;;5024519;28;20188;-64
2022/05/22 00:39:30;;;;;;;3.50;3.20;;;15.20;76.10;;;;;;5032054;28;20217;-64
2022/05/22 00:41:57;;;;;;;3.47;3.10;;;15.20;76.20;;;;;;5018552;28;20239;-64
2022/05/22 00:44:23;;;;;;;4.07;3.53;;;15.10;76.40;;;;;;5027970;28;20216;-63
2022/05/22 00:46:50;;;;;;;3.47;3.17;;;15.10;76.70;;;;;;5033359;28;20226;-63
2022/05/22 00:49:25;;;;;;;6.07;3.50;;;15.10;76.90;;;;;;5034555;28;20187;-63
2022/05/22 00:51:51;;;;;;;5.43;3.50;;;15.00;77.00;;;;;;5033584;28;20207;-63
2022/05/22 00:54:31;;;;;;;3.80;3.50;;;15.00;77.10;;;;;;5034269;28;20222;-63
2022/05/22 00:57:20;;;;;;;3.37;3.07;;;14.90;77.40;;;;;;5022168;28;20226;-63
2022/05/22 00:59:54;;;;;;;3.60;3.30;;;14.80;77.50;;;;;;5031316;28;20188;-63
2022/05/22 01:02:21;;;;;;;4.40;4.00;;;14.80;77.60;;;;;;5029763;28;20201;-63
2022/05/22 01:04:49;;;;;;;3.93;3.50;;;14.80;77.90;;;;;;5034001;28;20219;-63
2022/05/22 01:07:16;;;;;;;3.80;3.20;;;14.80;78.20;;;;;;5051877;28;20191;-63
2022/05/22 01:09:41;;;;;;;3.77;3.47;;;14.80;78.30;;;;;;5018600;28;20223;-63
2022/05/22 01:12:14;;;;;;;4.40;3.30;;;14.70;78.20;;;;;;5018813;28;20231;-63
2022/05/22 01:14:41;;;;;;;3.70;3.40;;;14.70;78.30;;;;;;5034008;28;20211;-63
2022/05/22 01:17:09;;;;;;;4.93;3.30;;;14.70;78.30;;;;;;5034728;28;20496;-64
2022/05/22 01:19:36;;;;;;;3.87;3.40;;;14.60;78.40;;;;;;5033826;28;20171;-63
2022/05/22 01:22:05;;;;;;;6.40;3.70;;;14.60;78.40;;;;;;5067397;28;20184;-63
2022/05/22 01:24:30;;;;;;;4.53;3.77;;;14.50;78.40;;;;;;5016079;28;20189;-63
2022/05/22 01:27:01;;;;;;;3.97;3.60;;;14.50;78.60;;;;;;5050075;28;20226;-63
2022/05/22 01:29:26;;;;;;;3.97;3.53;;;14.50;78.70;;;;;;5034283;28;20256;-63
2022/05/22 01:31:52;;;;;;;4.17;3.43;;;14.30;78.90;;;;;;5034308;28;20275;-63
2022/05/22 01:34:18;;;;;;;4.03;3.57;;;14.30;78.90;;;;;;5034800;28;20285;-63
2022/05/22 01:36:44;;;;;;;3.80;3.50;;;14.30;79.20;;;;;;5029096;28;20187;-63
2022/05/22 01:39:10;;;;;;;4.50;3.80;;;14.30;79.20;;;;;;5032942;28;20202;-63
2022/05/22 01:41:36;;;;;;;4.23;3.83;;;14.30;79.30;;;;;;5034929;28;20227;-63
2022/05/22 01:44:02;;;;;;;3.40;3.10;;;14.20;79.60;;;;;;5033989;28;20214;-63
2022/05/22 01:46:28;;;;;;;4.50;3.50;;;14.20;79.50;;;;;;5009867;28;20227;-63
2022/05/22 01:48:55;;;;;;;3.77;2.90;;;14.20;79.40;;;;;;4997030;28;20204;-63
2022/05/22 01:51:21;;;;;;;4.37;3.23;;;14.20;79.30;;;;;;5031304;28;20202;-62
2022/05/22 01:53:47;;;;;;;3.17;2.97;;;14.20;79.20;;;;;;5016214;28;20207;-62
2022/05/22 01:56:13;;;;;;;3.10;2.80;;;14.20;79.00;;;;;;5015295;28;20285;-62
2022/05/22 01:58:38;;;;;;;5.47;3.30;;;14.20;79.00;;;;;;5016254;28;20191;-63
2022/05/22 02:01:06;;;;;;;3.30;3.03;;;14.20;78.80;;;;;;5010011;28;20203;-63
2022/05/22 02:03:32;;;;;;;4.90;3.40;;;14.10;78.70;;;;;;5030429;28;20231;-63
2022/05/22 02:05:57;;;;;;;3.77;3.47;;;14.10;78.70;;;;;;5030307;28;20176;-63
2022/05/22 02:08:23;;;;;;;3.83;3.20;;;14.00;78.80;;;;;;5014322;28;20210;-63
2022/05/22 02:11:09;;;;;;;3.60;3.30;;;14.00;78.90;;;;;;5025678;28;20234;-63
2022/05/22 02:13:38;;;;;;;3.43;3.03;;;13.90;79.00;;;;;;5033014;28;20223;-63
2022/05/22 02:16:04;;;;;;;3.23;3.03;;;13.90;79.20;;;;;;5026031;28;20183;-63
2022/05/22 02:18:30;;;;;;;4.07;3.70;;;13.80;79.30;;;;;;5016040;28;20218;-63
2022/05/22 02:20:56;;;;;;;4.60;3.53;;;13.80;79.50;;;;;;5027612;28;20215;-63
2022/05/22 02:23:22;;;;;;;6.57;3.40;;;13.80;79.80;;;;;;5011969;28;20211;-63
2022/05/22 02:25:51;;;;;;;4.57;3.67;;;13.80;79.80;;;;;;5023352;28;20189;-63
2022/05/22 02:28:18;;;;;;;3.30;3.00;;;13.80;79.70;;;;;;5034597;28;20179;-63
2022/05/22 02:30:48;;;;;;;3.60;2.93;;;13.80;79.60;;;;;;5012750;28;20282;-63
2022/05/22 02:33:14;;;;;;;8.60;3.33;;;13.80;79.40;;;;;;5015454;28;20184;-63
2022/05/22 02:35:40;;;;;;;6.47;3.70;;;13.80;78.90;;;;;;5015641;28;20199;-63
2022/05/22 02:38:06;;;;;;;7.03;3.43;;;13.80;78.40;;;;;;5048779;28;20195;-63
2022/05/22 02:40:33;;;;;;;5.73;3.47;;;13.80;78.20;;;;;;5032831;28;20183;-63
2022/05/22 02:42:59;;;;;;;3.80;3.10;;;13.80;78.40;;;;;;5011713;28;20199;-63
2022/05/22 02:45:30;;;;;;;4.63;2.90;;;13.70;78.60;;;;;;5037131;28;20192;-63
2022/05/22 02:47:56;;;;;;;4.47;3.00;;;13.70;78.90;;;;;;5012382;28;20290;-63
2022/05/22 02:50:24;;;;;;;4.70;3.23;;;13.70;78.90;;;;;;5031941;28;20199;-63
2022/05/22 02:52:50;;;;;;;5.57;2.93;;;13.60;78.90;;;;;;5032241;28;20200;-63
2022/05/22 02:55:18;;;;;;;3.43;2.80;;;13.60;78.90;;;;;;5032379;28;20203;-63
2022/05/22 02:57:44;;;;;;;3.23;2.93;;;13.60;79.00;;;;;;5015706;28;20242;-63
2022/05/22 03:00:16;;;;;;;3.00;2.63;;;13.60;79.10;;;;;;5033328;28;20175;-64
2022/05/22 03:02:42;;;;;;;3.97;3.17;;;13.60;79.20;;;;;;5032289;28;20226;-63
2022/05/22 03:05:09;;;;;;;5.50;3.37;;;13.70;79.30;;;;;;5016485;28;20183;-63
2022/05/22 03:07:38;;;;;;;3.93;3.40;;;13.60;79.10;;;;;;5032322;28;20187;-63
2022/05/22 03:10:10;;;;;;;4.60;3.23;;;13.60;79.00;;;;;;5033048;28;20199;-63
2022/05/22 03:12:36;;;;;;;3.90;2.97;;;13.60;79.20;;;;;;5033779;28;20214;-63
2022/05/22 03:15:05;;;;;;;4.43;3.30;;;13.60;79.30;;;;;;5011572;28;20243;-64
2022/05/22 03:17:31;;;;;;;3.93;2.90;;;13.60;79.50;;;;;;5011562;28;20211;-64
2022/05/22 03:19:57;;;;;;;4.10;3.00;;;13.50;79.70;;;;;;5012197;28;20203;-64
2022/05/22 03:22:23;;;;;;;3.80;3.30;;;13.40;79.90;;;;;;5011112;28;20183;-64
2022/05/22 03:24:49;;;;;;;4.40;3.30;;;13.50;79.90;;;;;;5033406;28;20206;-64
2022/05/22 03:27:17;;;;;;;5.03;3.33;;;13.50;80.00;;;;;;5032437;28;20217;-64
2022/05/22 03:29:44;;;;;;;3.60;2.70;;;13.60;80.20;;;;;;5031183;28;20241;-64
2022/05/22 03:32:11;;;;;;;4.40;2.90;;;13.60;80.50;;;;;;5032934;28;20174;-64
2022/05/22 03:34:37;;;;;;;5.10;3.23;;;13.70;80.50;;;;;;5026564;28;20294;-64
2022/05/22 03:37:04;;;;;;;4.03;3.37;;;13.80;80.20;;;;;;5014630;28;20187;-64
2022/05/22 03:39:31;;;;;;;4.20;3.23;;;13.80;80.20;;;;;;5014475;28;20190;-63
2022/05/22 03:41:58;;;;;;;4.20;3.20;;;13.90;79.50;;;;;;5032040;28;20230;-63
2022/05/22 03:44:24;;;;;;;3.97;2.90;;;14.00;78.80;;;;;;5031570;28;20187;-63
2022/05/22 03:46:50;;;;;;;4.33;2.90;;;14.00;78.70;;;;;;5011007;28;20204;-63
2022/05/22 03:49:15;;;;;;;5.80;3.23;;;14.20;78.50;;;;;;5051849;28;20206;-63
2022/05/22 03:51:42;;;;;;;5.37;3.47;;;14.20;78.10;;;;;;5024397;28;20198;-63
2022/05/22 03:54:08;;;;;;;4.70;3.07;;;14.30;78.20;;;;;;5014206;28;20196;-63
2022/05/22 03:56:33;;;;;;;3.77;2.93;;;14.30;78.10;;;;;;5032530;28;20188;-63
2022/05/22 03:58:59;;;;;;;5.63;3.40;;;14.40;78.20;;;;;;5015610;28;20232;-64
2022/05/22 04:01:25;;;;;;;3.60;3.17;;;14.50;77.80;;;;;;5030783;28;20192;-64
2022/05/22 04:03:50;;;;;;;4.77;3.13;;;14.60;78.10;;;;;;5014632;28;20195;-63
2022/05/22 04:06:16;;;;;;;4.17;3.07;;;14.60;77.80;;;;;;5014773;28;20194;-62
2022/05/22 04:08:42;;;;;;;6.03;2.97;;;14.60;77.90;;;;;;5013898;28;20209;-65
2022/05/22 04:11:11;;;;;;;5.23;3.30;;;14.70;77.10;;;;;;5012766;28;20356;-66
2022/05/22 04:13:37;;;;;;;2.93;2.73;;;14.70;76.70;;;;;;5027048;28;20353;-66
2022/05/22 04:16:03;;;;;;;4.70;3.13;;;14.70;76.30;;;;;;5030303;28;20195;-65
2022/05/22 04:18:29;;;;;;;3.20;2.70;;;14.80;76.10;;;;;;5011713;28;20191;-65
2022/05/22 04:20:55;;;;;;;6.67;2.60;;;14.80;75.40;;;;;;5010845;28;20203;-65
2022/05/22 04:26:07;;;;;;;4.27;3.10;;;14.90;74.60;;;;;;5054383;28;20211;-64
2022/05/22 04:28:32;;;;;;;2.60;2.40;;;15.00;74.10;;;;;;5012974;28;20522;-64
2022/05/22 04:30:58;;;;;;;5.70;3.27;;;15.10;74.30;;;;;;5043749;28;20187;-64
2022/05/22 04:33:25;;;;;;;6.10;4.07;;;15.30;74.10;;;;;;5035273;28;20201;-64
2022/05/22 04:35:51;;;;;;;5.07;4.17;;;15.30;73.50;;;;;;5027637;28;20240;-64
2022/05/22 04:38:17;;;;;;;6.07;3.80;;;15.30;73.70;;;;;;5030417;28;20209;-63
2022/05/22 04:40:42;;;;;;;6.37;3.60;;;15.40;73.60;;;;;;5012568;28;20187;-63
2022/05/22 04:43:12;;;;;;;9.80;3.97;;;15.40;73.60;;;;;;5030558;28;20183;-63
2022/05/22 04:45:40;;;;;;;4.67;3.93;;;15.40;72.60;;;;;;5013267;28;20227;-63
2022/05/22 04:48:07;;;;;;;6.57;3.90;;;15.50;72.80;;;;;;5031305;28;20183;-64
2022/05/22 04:50:33;;;;;;;7.23;4.27;;;15.50;73.10;;;;;;5031216;28;20194;-64
2022/05/22 04:52:59;;;;;;;5.17;3.60;;;15.60;73.00;;;;;;5014855;28;20344;-64
2022/05/22 04:55:25;;;;;;;7.13;3.80;;;15.70;72.60;;;;;;5028863;28;20212;-64
2022/05/22 04:57:51;;;;;;;9.73;3.97;;;15.70;73.60;;;;;;5026908;28;20190;-64
2022/05/22 05:00:17;;;;;;;7.17;3.63;;;15.80;72.90;;;;;;5035225;28;20199;-64
2022/05/22 05:02:43;;;;;;;5.13;4.60;;;15.90;73.40;;;;;;5015942;28;20202;-64
2022/05/22 05:05:09;;;;;;;5.43;4.07;;;15.90;73.50;;;;;;5015045;28;20199;-64
2022/05/22 05:07:44;;;;;;;5.37;3.33;;;15.90;73.30;;;;;;5032406;28;20225;-64
2022/05/22 05:10:11;;;;;;;4.63;4.10;;;16.00;73.10;;;;;;5018766;28;20291;-64
2022/05/22 05:12:39;;;;;;;5.77;3.87;;;16.10;72.70;;;;;;5003071;28;20195;-64
2022/05/22 05:15:06;;;;;;;6.30;4.00;;;16.10;72.90;;;;;;5031223;28;20221;-64
2022/05/22 05:17:32;;;;;;;6.17;4.00;;;16.20;72.20;;;;;;5031311;28;20259;-64
2022/05/22 05:19:58;;;;;;;8.33;4.47;;;16.10;72.20;;;;;;5015891;28;20250;-64
2022/05/22 05:22:25;;;;;;;5.60;4.10;;;16.10;72.70;;;;;;5032606;28;20183;-63
2022/05/22 05:24:50;;;;;;;7.27;4.33;;;16.10;72.60;;;;;;5017945;28;20230;-63
2022/05/22 05:27:16;;;;;;;5.00;3.77;;;16.10;72.90;;;;;;5018169;28;20199;-63
2022/05/22 05:29:42;;;;;;;5.73;3.90;;;16.00;73.70;;;;;;5018019;28;20278;-63
2022/05/22 05:32:08;;;;;;;8.00;3.80;;;16.00;72.50;;;;;;5014537;28;20306;-63
2022/05/22 05:34:33;;;;;;;6.00;3.73;;;16.00;71.90;;;;;;5000771;28;20231;-63
2022/05/22 05:36:59;;;;;;;8.90;3.67;;;16.00;72.70;;;;;;5013950;28;20180;-62
2022/05/22 05:39:27;;;;;;;6.73;4.40;;;16.10;73.40;;;;;;5016026;28;20195;-62
2022/05/22 05:41:56;;;;;;;7.17;4.20;;;16.10;72.80;;;;;;5047817;28;20325;-63
2022/05/22 05:44:22;;;;;;;4.27;3.87;;;16.00;72.60;;;;;;5016788;28;20195;-63
2022/05/22 05:46:48;;;;;;;6.70;4.00;;;16.10;72.80;;;;;;5007137;28;20223;-62
2022/05/22 05:49:14;;;;;;;6.93;3.97;;;16.20;73.50;;;;;;5046182;28;20195;-62
2022/05/22 05:51:40;;;;;;;4.60;4.00;;;16.30;72.60;;;;;;5016610;28;20225;-62
2022/05/22 05:54:06;;;;;;;4.57;3.73;;;16.30;71.70;;;;;;5007337;28;20223;-62
2022/05/22 05:56:31;;;;;;;4.77;3.33;;;16.50;70.80;;;;;;5014614;28;20291;-62
2022/05/22 05:58:57;;;;;;;3.50;3.10;;;16.70;70.70;;;;;;5014563;28;20187;-64
2022/05/22 06:01:24;;;;;;;5.23;3.60;;;16.90;71.10;;;;;;5014346;28;20188;-64
2022/05/22 06:03:52;;;;;;;4.27;3.40;;;17.10;70.70;;;;;;5028497;28;20501;-64
2022/05/22 06:06:17;;;;;;;3.60;3.30;;;17.30;69.10;;;;;;5031412;28;20187;-64
2022/05/22 06:08:44;;;;;;;4.67;3.27;;;17.40;68.20;;;;;;5014206;28;20198;-64
2022/05/22 06:11:10;;;;;;;5.27;3.30;;;17.60;67.40;;;;;;5015976;28;20214;-64
2022/05/22 06:13:36;;;;;;;2.97;2.33;;;17.70;66.70;;;;;;5031221;28;20204;-63
2022/05/22 06:16:04;;;;;;;2.50;2.30;;;17.80;61.20;;;;;;5016395;28;20187;-64
2022/05/22 06:18:30;;;;;;;3.53;2.70;;;17.90;62.30;;;;;;5015805;28;20241;-64
2022/05/22 06:20:56;;;;;;;3.37;3.07;;;18.00;63.90;;;;;;5016094;28;20241;-63
2022/05/22 06:23:21;;;;;;;4.17;3.10;;;18.10;63.70;;;;;;5011445;28;20218;-64
2022/05/22 06:25:47;;;;;;;3.07;2.60;;;18.20;63.90;;;;;;5032721;28;20221;-63
2022/05/22 06:28:14;;;;;;;4.87;3.10;;;18.30;64.00;;;;;;5018417;28;20195;-63
2022/05/22 06:30:40;;;;;;;2.63;2.43;;;18.30;62.80;;;;;;5029372;28;20211;-63
2022/05/22 06:33:16;;;;;;;2.60;2.37;;;18.30;60.60;;;;;;5013637;28;20188;-64
2022/05/22 06:35:43;;;;;;;2.77;2.27;;;18.40;60.20;;;;;;5017280;28;20217;-65
2022/05/22 06:39:49;;;;;;;2.50;2.10;;;18.60;61.80;;;;;;5016096;28;20196;-65
2022/05/22 06:40:59;;;;;;;2.20;1.97;;;18.70;60.40;;;;;;5031535;28;20231;-64
2022/05/22 06:43:25;;;;;;;2.10;1.93;;;18.80;59.80;;;;;;5016864;28;20183;-64
2022/05/22 06:45:51;;;;;;;5.17;1.80;;;18.70;58.50;;;;;;5017224;28;20210;-63
2022/05/22 06:48:18;;;;;;;2.37;2.17;;;18.80;56.60;;;;;;5016454;28;20270;-63
2022/05/22 06:50:43;;;;;;;4.37;1.70;;;18.80;55.70;;;;;;5017013;28;20191;-63
2022/05/22 06:53:09;;;;;;;3.47;2.10;;;18.80;57.60;;;;;;5014115;28;20196;-63
2022/05/22 06:55:35;;;;;;;2.97;1.83;;;18.80;55.80;;;;;;5031153;28;20237;-63
2022/05/22 06:58:01;;;;;;;2.90;2.03;;;19.00;57.90;;;;;;5032991;28;20191;-62
2022/05/22 07:00:27;;;;;;;2.03;1.83;;;18.80;54.60;;;;;;5033584;28;20254;-62
2022/05/22 07:02:53;;;;;;;2.20;2.00;;;18.90;57.30;;;;;;5016824;28;20192;-63
2022/05/22 07:05:20;;;;;;;3.93;1.87;;;19.00;55.10;;;;;;5015795;28;20194;-66
2022/05/22 07:07:46;;;;;;;2.00;1.63;;;19.10;55.00;;;;;;5031490;28;20294;-65
2022/05/22 07:10:12;;;;;;;2.73;1.70;;;19.00;57.00;;;;;;5025580;28;20210;-68
2022/05/22 07:12:38;;;;;;;2.23;1.90;;;19.10;55.70;;;;;;5012717;28;20191;-69
2022/05/22 07:15:05;;;;;;;1.70;1.60;;;19.30;56.10;;;;;;5030045;28;20219;-70
2022/05/22 07:17:32;;;;;;;4.90;1.70;;;19.20;53.90;;;;;;5041028;28;20213;-68
2022/05/22 07:19:58;;;;;;;3.07;2.20;;;19.30;54.50;;;;;;5029656;28;20222;-68
2022/05/22 07:22:25;;;;;;;2.93;2.27;;;19.30;52.20;;;;;;5030534;28;20193;-69
2022/05/22 07:24:51;;;;;;;2.30;1.53;;;19.30;53.60;;;;;;5032227;28;20277;-68
2022/05/22 07:27:17;;;;;;;3.20;1.90;;;19.40;53.90;;;;;;5029234;28;20194;-68
2022/05/22 07:29:43;;;;;;;2.23;1.80;;;19.40;53.40;;;;;;5013907;28;20183;-68
2022/05/22 07:32:09;;;;;;;4.50;1.70;;;19.40;52.00;;;;;;5030946;28;20209;-68
2022/05/22 07:34:35;;;;;;;3.97;2.00;;;19.30;52.20;;;;;;5014279;28;20234;-68
2022/05/22 07:37:05;;;;;;;2.20;2.00;;;19.20;52.80;;;;;;5014446;28;20186;-69
2022/05/22 07:39:31;;;;;;;3.40;1.73;;;19.40;52.80;;;;;;5011687;28;20241;-68
2022/05/22 07:41:56;;;;;;;2.00;1.80;;;19.50;53.60;;;;;;4994643;28;20228;-68
2022/05/22 07:44:22;;;;;;;3.00;1.70;;;19.60;52.30;;;;;;5027942;28;20188;-68
2022/05/22 07:46:49;;;;;;;4.27;2.03;;;19.70;52.00;;;;;;5028415;28;20195;-68
2022/05/22 07:52:08;;;;;;;2.70;1.70;;;19.70;51.20;;;;;;5025892;28;20198;-69
2022/05/22 07:54:39;;;;;;;1.63;1.50;;;19.50;50.70;;;;;;5044536;28;20278;-69
2022/05/22 07:57:06;;;;;;;2.30;1.50;;;19.50;50.60;;;;;;5028461;28;20274;-68
2022/05/22 07:59:38;;;;;;;3.70;1.63;;;19.60;50.90;;;;;;5044902;28;20214;-69
2022/05/22 08:02:07;;;;;;;4.83;2.17;;;19.60;49.90;;;;;;5011682;28;20187;-69
2022/05/22 08:04:32;;;;;;;2.23;1.60;;;19.70;50.60;;;;;;5029663;28;20198;-68
2022/05/22 08:06:58;;;;;;;1.60;1.50;;;19.80;50.70;;;;;;5015200;28;20195;-68
2022/05/22 08:09:24;;;;;;;1.77;1.67;;;20.00;49.10;;;;;;5045729;28;20282;-69
2022/05/22 08:11:50;;;;;;;3.83;1.60;;;20.10;48.90;;;;;;5025536;28;20191;-69
2022/05/22 08:14:16;;;;;;;2.03;1.83;;;20.10;49.10;;;;;;5013344;28;20207;-69
2022/05/22 08:16:43;;;;;;;3.30;1.80;;;20.10;49.10;;;;;;5012868;28;20197;-69
2022/05/22 08:19:08;;;;;;;4.27;1.80;;;20.20;49.40;;;;;;5047757;28;20195;-69
2022/05/22 08:21:34;;;;;;;2.03;1.77;;;20.20;49.70;;;;;;5010489;28;20190;-69
2022/05/22 08:24:00;;;;;;;3.20;1.50;;;20.30;50.20;;;;;;5026843;28;20202;-68
2022/05/22 08:26:27;;;;;;;1.80;1.50;;;20.30;48.70;;;;;;5013032;28;20198;-68
2022/05/22 08:28:53;;;;;;;1.93;1.70;;;20.20;48.40;;;;;;5011549;28;20271;-68
2022/05/22 08:31:19;;;;;;;6.43;1.77;;;20.40;50.10;;;;;;5014205;28;20221;-67
2022/05/22 08:33:44;;;;;;;2.30;1.60;;;20.60;49.40;;;;;;5013298;28;20219;-67
2022/05/22 08:36:10;;;;;;;3.60;1.53;;;20.50;50.40;;;;;;5031664;28;20183;-67
2022/05/22 08:38:36;;;;;;;2.17;1.60;;;20.60;48.80;;;;;;5033622;28;20183;-66
2022/05/22 08:41:11;;;;;;;2.03;1.50;;;20.60;48.30;;;;;;5014941;28;20239;-65
2022/05/22 08:43:52;;;;;;;3.10;1.97;;;20.70;48.10;;;;;;5015239;28;20183;-65
2022/05/22 08:46:58;;;;;;;2.33;1.40;;;20.60;47.80;;;;;;5015890;28;20222;-65
2022/05/22 08:49:39;;;;;;;2.97;1.60;;;20.80;48.40;;;;;;5030717;28;20285;-65
2022/05/22 08:52:10;;;;;;;1.63;1.53;;;20.70;48.20;;;;;;5043631;28;20619;-65
2022/05/22 08:54:41;;;;;;;2.23;1.63;;;20.80;49.30;;;;;;5035138;28;20207;-65
2022/05/22 09:00:16;;;;;;;2.13;1.50;;;20.90;50.10;;;;;;5031424;28;20265;-65
2022/05/22 09:03:00;;;;;;;3.27;1.70;;;21.00;48.50;;;;;;5018307;28;20195;-65
2022/05/22 09:05:29;;;;;;;2.63;1.90;;;20.80;48.90;;;;;;5035783;28;20187;-65
2022/05/22 09:07:55;;;;;;;7.10;2.10;;;20.90;49.70;;;;;;5034169;28;20283;-65
2022/05/22 09:10:42;;;;;;;4.23;1.97;;;20.70;49.10;;;;;;5034152;28;20183;-65
2022/05/22 09:13:21;;;;;;;3.77;2.10;;;20.50;48.10;;;;;;5019613;28;20187;-65
2022/05/22 09:15:52;;;;;;;4.80;2.07;;;20.60;48.70;;;;;;5031347;28;20229;-64
2022/05/22 09:18:40;;;;;;;1.70;1.60;;;20.70;47.70;;;;;;5033451;28;20278;-64
2022/05/22 09:21:11;;;;;;;2.80;1.97;;;20.60;47.60;;;;;;5035194;28;20191;-64
2022/05/22 09:23:52;;;;;;;2.97;1.73;;;20.60;47.90;;;;;;5030770;28;20233;-64
2022/05/22 09:27:02;;;;;;;3.80;2.20;;;20.50;48.80;;;;;;5034413;28;20191;-64
2022/05/22 09:29:48;;;;;;;2.30;2.10;;;20.60;48.60;;;;;;5008301;28;20252;-64
2022/05/22 09:32:25;;;;;;;2.57;2.20;;;20.50;48.20;;;;;;5035169;28;20187;-64
2022/05/22 09:35:13;;;;;;;4.40;2.20;;;20.50;48.50;;;;;;5035806;28;20206;-64
2022/05/22 09:37:41;;;;;;;2.27;2.07;;;20.50;49.10;;;;;;5036010;28;20210;-64
2022/05/22 09:40:29;;;;;;;4.87;2.13;;;20.60;50.40;;;;;;5035652;28;20274;-64
2022/05/22 09:43:19;;;;;;;3.37;2.40;;;20.60;49.20;;;;;;5033646;28;20261;-64
2022/05/22 09:46:03;;;;;;;3.03;1.97;;;20.70;49.60;;;;;;5035388;28;20182;-64
2022/05/22 09:48:52;;;;;;;4.27;2.17;;;20.70;49.40;;;;;;5034648;28;20226;-64
2022/05/22 09:51:55;;;;;;;3.80;2.40;;;20.60;49.60;;;;;;5035156;28;20179;-64
2022/05/22 09:54:33;;;;;;;8.20;2.30;;;20.70;49.40;;;;;;5041365;28;20209;-65
2022/05/22 09:57:36;;;;;;;5.40;2.50;;;20.80;49.80;;;;;;5035002;28;20282;-64
2022/05/22 10:00:07;;;;;;;43.00;40.10;;;20.80;50.60;;;;;;5034896;28;20182;-64
2022/05/22 10:02:52;;;;;;;55.10;51.00;;;21.00;51.30;;;;;;5034451;28;20186;-64
2022/05/22 10:05:45;;;;;;;26.27;24.57;;;21.10;50.30;;;;;;5034951;28;20191;-64
2022/05/22 10:08:20;;;;;;;4.33;4.03;;;21.20;51.30;;;;;;5068269;28;20273;-64
2022/05/22 10:11:19;;;;;;;3.97;2.53;;;21.30;50.80;;;;;;5036065;28;20171;-64
2022/05/22 10:14:11;;;;;;;4.00;2.27;;;21.20;50.00;;;;;;5033760;28;20187;-64
2022/05/22 10:16:44;;;;;;;4.57;2.13;;;21.20;48.80;;;;;;5030719;28;20249;-66
2022/05/22 10:19:15;;;;;;;4.53;3.13;;;21.20;49.50;;;;;;5032633;28;20214;-64
2022/05/22 10:21:56;;;;;;;2.40;2.20;;;21.30;48.70;;;;;;5034668;28;20193;-64
2022/05/22 10:24:50;;;;;;;3.90;2.33;;;21.40;47.80;;;;;;5030199;28;20191;-63
2022/05/22 10:27:30;;;;;;;3.43;2.40;;;21.40;48.10;;;;;;5031470;28;20233;-63
2022/05/22 10:30:13;;;;;;;3.33;2.80;;;21.50;49.60;;;;;;5031219;28;20186;-63
2022/05/22 10:33:17;;;;;;;3.60;2.53;;;21.60;49.50;;;;;;5048138;28;20194;-64
2022/05/22 10:36:08;;;;;;;3.87;2.57;;;21.60;48.30;;;;;;5025136;28;20246;-64
2022/05/22 10:38:51;;;;;;;14.80;13.43;;;21.70;47.60;;;;;;5032920;28;20245;-64
2022/05/22 10:44:15;;;;;;;238.60;215.07;;;21.80;48.70;;;;;;5025766;28;20208;-64
2022/05/22 10:46:52;;;;;;;132.30;119.30;;;22.00;48.70;;;;;;5034687;28;20207;-64
2022/05/22 10:49:23;;;;;;;15.37;9.43;;;22.20;49.50;;;;;;5014589;28;20274;-64
2022/05/22 10:51:58;;;;;;;6.70;6.10;;;22.10;47.80;;;;;;5014487;28;20234;-64
2022/05/22 10:54:34;;;;;;;6.93;4.83;;;22.20;48.60;;;;;;5015509;28;20207;-64
2022/05/22 10:57:16;;;;;;;4.33;3.00;;;22.30;47.60;;;;;;5014835;28;20203;-64
2022/05/22 10:59:42;;;;;;;3.80;2.60;;;22.30;46.60;;;;;;5018227;28;20187;-64
2022/05/22 11:02:24;;;;;;;5.07;3.13;;;22.50;47.10;;;;;;5018088;28;20194;-64
2022/05/22 11:04:52;;;;;;;5.27;3.27;;;22.50;46.60;;;;;;5034431;28;20262;-64
2022/05/22 11:07:31;;;;;;;7.03;3.20;;;22.30;46.60;;;;;;5035299;28;20174;-64
2022/05/22 11:10:16;;;;;;;4.43;2.87;;;22.50;47.00;;;;;;5033248;28;20203;-64
2022/05/22 11:12:43;;;;;;;3.00;2.70;;;22.60;46.00;;;;;;5052863;28;20199;-64
2022/05/22 11:15:16;;;;;;;3.30;2.60;;;22.70;46.10;;;;;;5033713;28;20207;-64
2022/05/22 11:17:41;;;;;;;3.83;2.70;;;22.80;45.90;;;;;;5033851;28;20213;-64
2022/05/22 11:20:16;;;;;;;5.67;2.60;;;22.90;48.90;;;;;;5025619;28;20248;-64
2022/05/22 11:22:59;;;;;;;8.33;2.83;;;23.20;47.90;;;;;;5047156;28;20234;-64
2022/05/22 11:25:58;;;;;;;2.67;2.30;;;23.30;48.10;;;;;;5030638;28;20176;-65
2022/05/22 11:28:27;;;;;;;3.73;2.97;;;23.60;48.00;;;;;;5061673;28;20190;-64
2022/05/22 11:31:27;;;;;;;3.07;2.50;;;23.70;46.70;;;;;;5034635;28;20231;-64
2022/05/22 11:34:12;;;;;;;5.10;2.90;;;24.00;48.90;;;;;;5032978;28;20272;-66
2022/05/22 11:36:50;;;;;;;3.33;2.90;;;24.30;45.70;;;;;;5044355;28;20489;-65
2022/05/22 11:39:34;;;;;;;5.27;2.70;;;24.60;44.90;;;;;;5033097;28;20183;-69
2022/05/22 11:42:34;;;;;;;3.23;2.67;;;24.60;43.30;;;;;;5031810;28;20227;-67
2022/05/22 11:45:13;;;;;;;3.70;3.20;;;24.80;42.60;;;;;;5065644;28;20340;-64
2022/05/22 11:47:39;;;;;;;2.77;2.57;;;24.90;42.40;;;;;;5033303;28;20182;-64
2022/05/22 11:50:23;;;;;;;3.27;2.93;;;25.40;43.80;;;;;;5028662;28;20188;-64
2022/05/22 11:53:25;;;;;;;3.83;3.00;;;25.80;41.10;;;;;;5032779;28;20198;-64
2022/05/22 11:56:14;;;;;;;2.90;2.60;;;26.20;42.50;;;;;;5012797;28;20273;-64
2022/05/22 11:59:20;;;;;;;3.47;2.90;;;27.10;40.30;;;;;;5033100;28;20205;-64
2022/05/22 12:02:02;;;;;;;2.67;2.40;;;29.20;35.80;;;;;;5022847;28;20214;-65
2022/05/22 12:04:40;;;;;;;3.43;2.80;;;31.60;32.10;;;;;;5031936;28;20179;-65
2022/05/22 12:07:44;;;;;;;3.40;3.00;;;33.20;31.90;;;;;;5029177;28;20186;-65
2022/05/22 12:10:28;;;;;;;4.07;2.53;;;35.20;28.20;;;;;;5014683;28;20194;-65
2022/05/22 12:12:58;;;;;;;2.42;2.05;;;36.70;26.40;;;;;;5024443;28;20195;-65
2022/05/22 12:15:39;;;;;;;3.38;3.10;;;38.20;24.30;;;;;;5036445;28;20211;-66
2022/05/22 12:18:23;;;;;;;4.90;3.40;;;38.70;26.40;;;;;;5038731;28;20252;-65
2022/05/22 12:21:02;;;;;;;3.67;3.00;;;39.70;22.00;;;;;;5037958;28;20254;-66
2022/05/22 12:23:46;;;;;;;2.05;1.80;;;39.90;23.00;;;;;;5038060;28;20194;-66
2022/05/22 12:26:13;;;;;;;3.03;2.20;;;40.60;21.50;;;;;;5023424;28;20198;-63
2022/05/22 12:28:51;;;;;;;3.55;2.00;;;41.70;23.10;;;;;;5028830;28;20187;-63
2022/05/22 12:31:29;;;;;;;3.88;2.08;;;42.10;22.60;;;;;;5037048;28;20187;-63
2022/05/22 12:34:01;;;;;;;2.05;1.80;;;42.60;19.70;;;;;;5037141;28;20214;-64
2022/05/22 12:36:29;;;;;;;4.53;2.20;;;42.00;20.40;;;;;;5026043;28;20183;-64
2022/05/22 12:39:01;;;;;;;3.17;2.20;;;43.00;21.70;;;;;;5037140;28;20186;-64
2022/05/22 12:41:35;;;;;;;2.33;2.13;;;43.70;17.80;;;;;;5034170;28;20279;-65
2022/05/22 12:44:03;;;;;;;2.53;2.00;;;43.70;19.30;;;;;;5031825;28;20200;-65
2022/05/22 12:46:29;;;;;;;2.15;1.52;;;44.00;19.60;;;;;;5036647;28;20240;-64
2022/05/22 12:49:08;;;;;;;2.30;2.10;;;44.70;18.60;;;;;;5037892;28;20186;-64
2022/05/22 12:51:39;;;;;;;3.45;2.65;;;45.20;18.10;;;;;;5038704;28;20183;-64
2022/05/22 12:54:25;;;;;;;2.05;1.58;;;45.80;17.00;;;;;;5039225;28;20211;-65
2022/05/22 12:56:51;;;;;;;2.90;1.90;;;46.80;16.40;;;;;;5038968;28;20175;-66
2022/05/22 12:59:27;;;;;;;5.40;2.50;;;46.70;18.00;;;;;;5038503;28;20245;-64
2022/05/22 13:01:55;;;;;;;2.25;2.05;;;46.40;18.70;;;;;;5038954;28;20280;-65
2022/05/22 13:04:54;;;;;;;1.58;1.48;;;47.00;17.40;;;;;;5038866;28;20187;-66
2022/05/22 13:07:30;;;;;;;2.20;2.03;;;46.70;17.40;;;;;;5039376;28;20183;-66
2022/05/22 13:09:55;;;;;;;1.70;1.60;;;46.60;16.40;;;;;;5038398;28;20183;-63
2022/05/22 13:12:31;;;;;;;1.50;1.40;;;45.80;16.90;;;;;;5022280;28;20285;-63
2022/05/22 13:15:00;;;;;;;2.88;1.50;;;44.50;18.50;;;;;;5033486;28;20214;-63
2022/05/22 13:17:50;;;;;;;1.70;1.60;;;43.20;18.50;;;;;;5039317;28;20175;-63